Time;durP1;ratioP1;P1;durP2;ratioP2;P2;SDS_P1;SDS_P2;PMS_P1;PMS_P2;Temp;Humidity;BMP_temperature;BMP_pressure;BME280_temperature;BME280_humidity;BME280_pressure;Samples;Min_cycle;Max_cycle;Signal;HPM_P1;HPM_P2
2022/03/20 00:00:31;;;;;;;4.07;1.70;;;12.30;99.90;;;;;;1018165;29;20038;-67
2022/03/20 00:01:02;;;;;;;4.82;1.90;;;12.30;99.90;;;;;;1016988;29;20027;-69
2022/03/20 00:01:32;;;;;;;4.22;2.00;;;12.30;99.90;;;;;;1015006;29;20448;-67
2022/03/20 00:02:04;;;;;;;2.90;1.83;;;12.30;99.90;;;;;;1014984;29;20486;-67
2022/03/20 00:02:35;;;;;;;2.75;1.60;;;12.30;99.90;;;;;;1015135;29;20035;-67
2022/03/20 00:03:09;;;;;;;3.17;1.50;;;12.30;99.90;;;;;;1015055;29;20087;-67
2022/03/20 00:03:40;;;;;;;3.33;2.10;;;12.30;99.90;;;;;;1014895;29;20020;-67
2022/03/20 00:04:10;;;;;;;3.97;2.00;;;12.30;99.90;;;;;;1015092;29;20020;-69
2022/03/20 00:04:41;;;;;;;2.30;1.53;;;12.30;99.90;;;;;;1018327;29;20824;-67
2022/03/20 00:05:11;;;;;;;2.40;1.37;;;12.30;99.90;;;;;;1018526;29;20031;-67
2022/03/20 00:05:46;;;;;;;3.73;1.67;;;12.30;99.90;;;;;;1018675;29;20063;-67
2022/03/20 00:06:16;;;;;;;4.03;1.80;;;12.30;99.90;;;;;;1018639;29;20839;-67
2022/03/20 00:06:47;;;;;;;3.97;1.90;;;12.30;99.90;;;;;;1018380;29;20386;-69
2022/03/20 00:07:17;;;;;;;5.37;1.93;;;12.30;99.90;;;;;;1014511;29;20147;-68
2022/03/20 00:07:48;;;;;;;3.97;1.70;;;12.30;99.90;;;;;;1014806;29;20039;-67
2022/03/20 00:08:18;;;;;;;3.63;1.47;;;12.20;99.90;;;;;;1013104;29;20107;-68
2022/03/20 00:08:52;;;;;;;3.50;1.80;;;12.20;99.90;;;;;;1018617;29;20115;-68
2022/03/20 00:09:22;;;;;;;6.40;1.90;;;12.20;99.90;;;;;;1017983;29;20024;-68
2022/03/20 00:09:52;;;;;;;4.33;1.70;;;12.20;99.90;;;;;;1015007;29;20068;-68
2022/03/20 00:10:23;;;;;;;2.77;1.97;;;12.20;99.90;;;;;;1014993;29;20084;-68
2022/03/20 00:10:56;;;;;;;6.00;2.87;;;12.20;99.90;;;;;;1014979;29;20072;-68
2022/03/20 00:11:28;;;;;;;2.88;1.75;;;12.20;99.90;;;;;;1014928;29;20373;-67
2022/03/20 00:11:58;;;;;;;3.33;1.92;;;12.20;99.90;;;;;;1014864;29;20524;-66
2022/03/20 00:12:29;;;;;;;2.40;1.53;;;12.10;99.90;;;;;;1015049;29;20560;-69
2022/03/20 00:13:00;;;;;;;3.47;1.73;;;12.10;99.90;;;;;;1014467;29;20119;-68
2022/03/20 00:13:31;;;;;;;3.97;2.10;;;12.10;99.90;;;;;;1014442;29;20118;-67
2022/03/20 00:14:02;;;;;;;4.00;1.90;;;12.10;99.90;;;;;;1014816;29;20055;-68
2022/03/20 00:14:33;;;;;;;3.55;1.95;;;12.10;99.90;;;;;;1014666;29;20076;-69
2022/03/20 00:15:04;;;;;;;3.43;1.70;;;12.10;99.90;;;;;;1014894;29;20024;-69
2022/03/20 00:15:36;;;;;;;2.33;1.75;;;12.10;99.90;;;;;;1014981;29;20114;-68
2022/03/20 00:16:06;;;;;;;4.63;2.28;;;12.10;99.90;;;;;;1015206;29;20071;-67
2022/03/20 00:16:37;;;;;;;3.93;2.00;;;12.10;99.90;;;;;;1015223;29;20051;-67
2022/03/20 00:17:07;;;;;;;2.90;1.80;;;12.10;99.90;;;;;;1015335;29;20451;-66
2022/03/20 00:17:38;;;;;;;3.43;1.73;;;12.10;99.90;;;;;;1015230;29;20059;-66
2022/03/20 00:18:13;;;;;;;4.23;2.30;;;12.10;99.90;;;;;;1014609;29;20032;-67
2022/03/20 00:18:44;;;;;;;4.25;2.05;;;12.10;99.90;;;;;;1014858;29;20126;-67
2022/03/20 00:19:14;;;;;;;3.93;1.93;;;12.10;99.90;;;;;;1014702;29;20024;-68
2022/03/20 00:19:45;;;;;;;5.07;2.10;;;12.10;99.90;;;;;;1017203;29;20544;-67
2022/03/20 00:20:16;;;;;;;3.53;1.90;;;12.10;99.90;;;;;;1015306;29;20016;-67
2022/03/20 00:20:49;;;;;;;3.03;1.90;;;12.00;99.90;;;;;;1015297;29;20379;-68
2022/03/20 00:21:19;;;;;;;4.38;2.33;;;12.00;99.90;;;;;;1014845;29;20020;-67
2022/03/20 00:21:50;;;;;;;4.10;2.07;;;12.00;99.90;;;;;;1014955;29;20020;-66
2022/03/20 00:22:20;;;;;;;4.60;1.87;;;12.00;99.90;;;;;;1017391;29;20019;-67
2022/03/20 00:22:52;;;;;;;3.97;1.97;;;12.00;99.90;;;;;;1014727;29;20043;-67
2022/03/20 00:23:23;;;;;;;3.20;2.05;;;12.00;99.90;;;;;;1014731;29;20020;-67
2022/03/20 00:23:54;;;;;;;5.10;1.98;;;12.00;99.90;;;;;;1015361;29;20487;-67
2022/03/20 00:24:24;;;;;;;4.27;2.23;;;12.00;99.90;;;;;;1018668;29;20531;-68
2022/03/20 00:24:55;;;;;;;2.57;1.83;;;12.00;99.90;;;;;;1019292;29;20412;-67
2022/03/20 00:25:25;;;;;;;3.20;2.00;;;12.00;99.90;;;;;;1018507;29;20496;-67
2022/03/20 00:25:57;;;;;;;3.47;2.10;;;12.00;99.90;;;;;;1018807;29;20058;-66
2022/03/20 00:26:27;;;;;;;3.15;1.95;;;12.00;99.90;;;;;;1018709;29;20090;-67
2022/03/20 00:26:58;;;;;;;2.93;2.10;;;12.00;99.90;;;;;;1017217;29;20142;-67
2022/03/20 00:27:29;;;;;;;3.13;2.10;;;12.00;99.90;;;;;;1015148;29;20016;-67
2022/03/20 00:28:02;;;;;;;3.50;2.50;;;12.00;99.90;;;;;;1015108;29;20460;-67
2022/03/20 00:28:32;;;;;;;3.75;2.22;;;12.00;99.90;;;;;;1015047;29;20016;-68
2022/03/20 00:29:04;;;;;;;5.30;2.30;;;12.00;99.90;;;;;;1015344;29;20035;-68
2022/03/20 00:29:34;;;;;;;4.25;2.20;;;12.00;99.90;;;;;;1015231;29;20016;-69
2022/03/20 00:30:05;;;;;;;4.17;2.47;;;11.90;99.90;;;;;;1015175;29;20016;-68
2022/03/20 00:30:36;;;;;;;4.03;2.73;;;11.90;99.90;;;;;;1015123;29;20736;-68
2022/03/20 00:31:07;;;;;;;4.03;2.63;;;11.90;99.90;;;;;;1015392;29;20351;-67
2022/03/20 00:31:37;;;;;;;5.27;2.77;;;11.90;99.90;;;;;;1014440;29;20035;-68
2022/03/20 00:32:11;;;;;;;4.17;2.40;;;11.90;99.90;;;;;;1015026;29;20039;-66
2022/03/20 00:32:42;;;;;;;3.83;2.30;;;11.90;99.90;;;;;;1014730;29;20067;-67
2022/03/20 00:33:13;;;;;;;4.50;3.28;;;11.90;99.90;;;;;;1014991;29;20083;-67
2022/03/20 00:33:43;;;;;;;3.87;2.57;;;11.90;99.90;;;;;;1014987;29;20061;-67
2022/03/20 00:34:14;;;;;;;4.53;2.30;;;11.90;99.90;;;;;;1015360;29;20074;-67
2022/03/20 00:34:44;;;;;;;5.27;2.40;;;11.90;99.90;;;;;;1015192;29;20020;-65
2022/03/20 00:35:14;;;;;;;3.77;2.37;;;11.90;99.90;;;;;;1015167;29;20031;-69
2022/03/20 00:35:46;;;;;;;3.73;2.80;;;11.80;99.90;;;;;;1014579;29;20028;-67
2022/03/20 00:36:16;;;;;;;3.15;2.42;;;11.80;99.90;;;;;;1016534;29;20027;-69
2022/03/20 00:36:47;;;;;;;3.90;2.10;;;11.80;99.90;;;;;;1018640;29;20016;-67
2022/03/20 00:37:17;;;;;;;4.50;3.10;;;11.80;99.90;;;;;;1018690;29;20558;-68
2022/03/20 00:37:48;;;;;;;5.17;3.10;;;11.80;99.90;;;;;;1018757;29;20051;-69
2022/03/20 00:38:18;;;;;;;4.47;2.40;;;11.80;99.90;;;;;;1014659;29;20020;-67
2022/03/20 00:38:49;;;;;;;4.33;3.00;;;11.80;99.90;;;;;;1018731;29;20523;-67
2022/03/20 00:39:19;;;;;;;4.63;2.97;;;11.80;99.90;;;;;;1018665;29;20461;-67
2022/03/20 00:39:49;;;;;;;5.03;2.80;;;11.80;99.90;;;;;;1018676;29;20503;-67
2022/03/20 00:40:20;;;;;;;4.80;3.00;;;11.80;99.90;;;;;;1018981;29;20443;-67
2022/03/20 00:40:50;;;;;;;3.90;2.57;;;11.80;99.90;;;;;;1018973;29;20020;-68
2022/03/20 00:41:21;;;;;;;4.70;3.10;;;11.80;99.90;;;;;;1018525;29;20139;-68
2022/03/20 00:41:51;;;;;;;4.30;2.97;;;11.80;99.90;;;;;;1018785;29;20020;-69
2022/03/20 00:42:22;;;;;;;4.77;2.93;;;11.80;99.90;;;;;;1018473;29;20023;-68
2022/03/20 00:42:53;;;;;;;4.37;3.00;;;11.80;99.90;;;;;;1018913;29;20067;-69
2022/03/20 00:43:24;;;;;;;4.40;2.80;;;11.80;99.90;;;;;;1018763;29;20024;-66
2022/03/20 00:43:54;;;;;;;3.33;2.60;;;11.80;99.90;;;;;;1018592;29;20055;-68
2022/03/20 00:44:25;;;;;;;5.40;2.33;;;11.80;99.90;;;;;;1019010;29;20486;-68
2022/03/20 00:44:55;;;;;;;4.27;3.00;;;11.80;99.90;;;;;;1019263;29;20019;-68
2022/03/20 00:45:28;;;;;;;4.53;3.17;;;11.80;99.90;;;;;;1018387;29;20038;-68
2022/03/20 00:45:58;;;;;;;3.55;2.40;;;11.80;99.90;;;;;;1018872;29;20022;-66
2022/03/20 00:46:29;;;;;;;3.70;2.63;;;11.70;99.90;;;;;;1018725;29;20103;-69
2022/03/20 00:46:59;;;;;;;3.70;3.20;;;11.70;99.90;;;;;;1018657;29;20499;-68
2022/03/20 00:47:30;;;;;;;6.37;3.17;;;11.70;99.90;;;;;;1018644;29;20023;-68
2022/03/20 00:48:01;;;;;;;4.90;3.27;;;11.70;99.90;;;;;;1018853;29;20039;-66
2022/03/20 00:48:31;;;;;;;4.03;3.20;;;11.70;99.90;;;;;;1018458;29;20016;-68
2022/03/20 00:49:02;;;;;;;6.07;3.53;;;11.70;99.90;;;;;;1014798;29;20039;-68
2022/03/20 00:49:32;;;;;;;4.90;3.60;;;11.70;99.90;;;;;;1014637;29;20654;-66
2022/03/20 00:50:04;;;;;;;4.23;3.20;;;11.70;99.90;;;;;;1014722;29;20090;-67
2022/03/20 00:50:35;;;;;;;4.45;3.00;;;11.70;99.90;;;;;;1018567;29;20012;-68
2022/03/20 00:51:10;;;;;;;4.38;3.72;;;11.70;99.90;;;;;;1018710;29;20145;-68
2022/03/20 00:51:42;;;;;;;4.20;3.47;;;11.70;99.90;;;;;;1018762;29;20102;-68
2022/03/20 00:52:13;;;;;;;5.63;4.00;;;11.70;99.90;;;;;;1018794;29;20071;-67
2022/03/20 00:52:43;;;;;;;4.77;3.80;;;11.70;99.90;;;;;;1018604;29;20111;-67
2022/03/20 00:53:14;;;;;;;5.87;3.33;;;11.70;99.90;;;;;;1018749;29;20020;-66
2022/03/20 00:53:45;;;;;;;3.87;2.90;;;11.70;99.90;;;;;;1018475;29;20039;-67
2022/03/20 00:54:15;;;;;;;3.88;3.17;;;11.70;99.90;;;;;;1018762;29;20016;-66
2022/03/20 00:54:46;;;;;;;5.83;4.10;;;11.70;99.90;;;;;;1018261;29;20023;-66
2022/03/20 00:55:17;;;;;;;5.88;3.90;;;11.70;99.90;;;;;;1018707;29;20019;-67
2022/03/20 00:55:47;;;;;;;5.60;4.03;;;11.70;99.90;;;;;;1018991;29;20070;-67
2022/03/20 00:56:18;;;;;;;6.17;3.40;;;11.70;99.90;;;;;;1018929;29;20048;-71
2022/03/20 00:56:48;;;;;;;5.37;3.83;;;11.70;99.90;;;;;;1018850;29;20023;-68
2022/03/20 00:57:19;;;;;;;4.73;3.70;;;11.70;99.90;;;;;;1016605;29;20051;-66
2022/03/20 00:57:50;;;;;;;5.75;3.83;;;11.60;99.90;;;;;;1014193;29;20012;-68
2022/03/20 00:58:20;;;;;;;5.03;3.73;;;11.70;99.90;;;;;;1018252;29;20049;-68
2022/03/20 00:58:51;;;;;;;6.60;4.17;;;11.70;99.90;;;;;;1018564;29;20020;-67
2022/03/20 00:59:21;;;;;;;6.13;4.03;;;11.70;99.90;;;;;;1018556;29;20139;-67
2022/03/20 00:59:52;;;;;;;4.43;3.63;;;11.70;99.90;;;;;;1018352;29;20035;-69
2022/03/20 01:00:22;;;;;;;4.90;4.20;;;11.70;99.90;;;;;;1018835;29;20039;-67
2022/03/20 01:00:53;;;;;;;4.73;3.90;;;11.60;99.90;;;;;;1018553;29;20024;-67
2022/03/20 01:01:23;;;;;;;5.53;4.40;;;11.70;99.90;;;;;;1018663;29;20827;-66
2022/03/20 01:01:55;;;;;;;5.50;3.70;;;11.60;99.90;;;;;;1014648;29;20043;-66
2022/03/20 01:02:28;;;;;;;5.88;4.07;;;11.60;99.90;;;;;;1014742;29;20087;-66
2022/03/20 01:02:59;;;;;;;5.00;4.05;;;11.60;99.90;;;;;;1014895;29;20439;-66
2022/03/20 01:03:30;;;;;;;4.30;3.83;;;11.60;99.90;;;;;;1014610;29;20063;-67
2022/03/20 01:04:00;;;;;;;4.27;3.63;;;11.60;99.90;;;;;;1014617;29;20071;-67
2022/03/20 01:04:31;;;;;;;5.97;4.20;;;11.60;99.90;;;;;;1014665;29;20016;-68
2022/03/20 01:05:02;;;;;;;6.33;4.37;;;11.60;99.90;;;;;;1014676;29;20437;-68
2022/03/20 01:05:32;;;;;;;6.30;4.37;;;11.60;99.90;;;;;;1015183;29;20059;-68
2022/03/20 01:06:02;;;;;;;6.23;4.53;;;11.60;99.90;;;;;;1019522;28;20023;-68
2022/03/20 01:06:33;;;;;;;5.80;3.93;;;11.60;99.90;;;;;;1018517;29;20074;-67
2022/03/20 01:07:04;;;;;;;4.13;3.73;;;11.60;99.90;;;;;;1018572;29;20042;-69
2022/03/20 01:07:36;;;;;;;5.00;3.35;;;11.60;99.90;;;;;;1018569;29;20802;-68
2022/03/20 01:08:07;;;;;;;4.68;3.72;;;11.50;99.90;;;;;;1018785;29;20462;-69
2022/03/20 01:08:38;;;;;;;5.50;3.70;;;11.60;99.90;;;;;;1018220;29;20348;-69
2022/03/20 01:09:09;;;;;;;5.55;3.75;;;11.60;99.90;;;;;;1018969;29;20020;-67
2022/03/20 01:09:39;;;;;;;4.13;3.70;;;11.60;99.90;;;;;;1018271;29;20031;-67
2022/03/20 01:10:13;;;;;;;5.43;3.73;;;11.60;99.90;;;;;;1018701;29;20024;-68
2022/03/20 01:10:43;;;;;;;4.65;4.22;;;11.50;99.90;;;;;;1018901;29;20075;-68
2022/03/20 01:11:14;;;;;;;8.10;4.57;;;11.50;99.90;;;;;;1016312;29;20083;-70
2022/03/20 01:11:44;;;;;;;6.83;3.90;;;11.50;99.90;;;;;;1014631;29;20016;-67
2022/03/20 01:12:15;;;;;;;6.63;4.53;;;11.50;99.90;;;;;;1014860;29;20416;-69
2022/03/20 01:12:46;;;;;;;6.83;4.10;;;11.50;99.90;;;;;;1014454;29;20034;-67
2022/03/20 01:13:16;;;;;;;4.87;3.80;;;11.50;99.90;;;;;;1010922;29;20071;-71
2022/03/20 01:13:47;;;;;;;5.57;4.43;;;11.50;99.90;;;;;;1014472;29;20661;-67
2022/03/20 01:14:17;;;;;;;6.43;4.33;;;11.50;99.90;;;;;;1014834;29;20028;-68
2022/03/20 01:14:48;;;;;;;6.30;4.37;;;11.50;99.90;;;;;;1014560;29;20024;-70
2022/03/20 01:15:18;;;;;;;6.83;3.90;;;11.50;99.90;;;;;;1014987;29;20384;-68
2022/03/20 01:15:49;;;;;;;6.37;4.27;;;11.50;99.90;;;;;;1016913;29;20032;-68
2022/03/20 01:16:19;;;;;;;5.90;4.40;;;11.50;99.90;;;;;;1018547;29;20023;-66
2022/03/20 01:16:51;;;;;;;6.53;4.20;;;11.50;99.90;;;;;;1014950;29;20036;-67
2022/03/20 01:17:23;;;;;;;5.88;4.50;;;11.50;99.90;;;;;;1014722;29;20048;-69
2022/03/20 01:17:54;;;;;;;5.18;4.30;;;11.50;99.90;;;;;;1015032;29;20059;-67
2022/03/20 01:18:25;;;;;;;5.97;4.30;;;11.50;99.90;;;;;;1015065;29;20103;-67
2022/03/20 01:18:55;;;;;;;6.57;4.03;;;11.50;99.90;;;;;;1015102;29;20463;-67
2022/03/20 01:19:26;;;;;;;6.00;4.30;;;11.50;99.90;;;;;;1014580;29;20024;-68
2022/03/20 01:19:57;;;;;;;7.70;3.83;;;11.50;99.90;;;;;;1014665;29;20624;-68
2022/03/20 01:20:27;;;;;;;6.40;4.33;;;11.50;99.90;;;;;;1010541;29;20476;-68
2022/03/20 01:20:58;;;;;;;5.30;4.20;;;11.50;99.90;;;;;;1010819;29;20068;-67
2022/03/20 01:21:30;;;;;;;4.93;3.90;;;11.40;99.90;;;;;;1010812;29;20029;-67
2022/03/20 01:22:00;;;;;;;6.10;4.28;;;11.40;99.90;;;;;;1010907;29;20009;-67
2022/03/20 01:22:31;;;;;;;5.70;4.13;;;11.40;99.90;;;;;;1014700;29;20099;-67
2022/03/20 01:23:02;;;;;;;7.10;4.87;;;11.40;99.90;;;;;;1014749;29;20013;-67
2022/03/20 01:23:33;;;;;;;5.07;4.43;;;11.40;99.90;;;;;;1018832;29;20501;-68
2022/03/20 01:24:04;;;;;;;4.93;4.20;;;11.40;99.90;;;;;;1018905;29;20731;-68
2022/03/20 01:24:34;;;;;;;4.40;3.83;;;11.40;99.90;;;;;;1019096;29;20030;-67
2022/03/20 01:25:08;;;;;;;6.00;3.60;;;11.40;99.90;;;;;;1018845;29;20455;-68
2022/03/20 01:25:40;;;;;;;5.47;3.50;;;11.40;99.90;;;;;;1018725;29;20102;-67
2022/03/20 01:26:11;;;;;;;5.38;4.00;;;11.40;99.90;;;;;;1018639;29;20390;-67
2022/03/20 01:26:42;;;;;;;7.50;4.60;;;11.40;99.90;;;;;;1018326;29;20023;-67
2022/03/20 01:27:13;;;;;;;5.23;4.30;;;11.40;99.90;;;;;;1018738;29;20012;-67
2022/03/20 01:27:43;;;;;;;5.75;4.47;;;11.40;99.90;;;;;;1018535;29;20023;-67
2022/03/20 01:28:15;;;;;;;4.67;4.10;;;11.40;99.90;;;;;;1018393;29;20114;-68
2022/03/20 01:28:46;;;;;;;6.35;4.60;;;11.40;99.90;;;;;;1018526;29;20019;-68
2022/03/20 01:29:16;;;;;;;6.20;4.60;;;11.40;99.90;;;;;;1018584;29;20023;-70
2022/03/20 01:29:47;;;;;;;5.07;4.33;;;11.30;99.90;;;;;;1018518;29;20102;-68
2022/03/20 01:30:17;;;;;;;5.50;4.27;;;11.30;99.90;;;;;;1018872;29;20027;-67
2022/03/20 01:30:48;;;;;;;7.80;4.20;;;11.30;99.90;;;;;;1019081;29;20016;-67
2022/03/20 01:31:18;;;;;;;6.80;4.60;;;11.30;99.90;;;;;;1018832;29;20034;-69
2022/03/20 01:31:49;;;;;;;6.33;4.17;;;11.30;99.90;;;;;;1018911;29;20023;-68
2022/03/20 01:32:19;;;;;;;6.27;4.30;;;11.30;99.90;;;;;;1018927;29;20103;-66
2022/03/20 01:32:50;;;;;;;6.93;4.37;;;11.30;99.90;;;;;;1018735;29;20657;-67
2022/03/20 01:33:21;;;;;;;6.83;5.00;;;11.30;99.90;;;;;;1019030;29;20051;-69
2022/03/20 01:33:51;;;;;;;6.17;4.40;;;11.30;99.90;;;;;;1018523;29;20564;-68
2022/03/20 01:34:22;;;;;;;5.43;4.67;;;11.30;99.90;;;;;;1018543;29;20550;-68
2022/03/20 01:34:52;;;;;;;7.77;4.57;;;11.30;99.90;;;;;;1018445;29;20040;-68
2022/03/20 01:35:23;;;;;;;6.03;4.13;;;11.30;99.90;;;;;;1018655;29;20023;-66
2022/03/20 01:35:54;;;;;;;5.10;4.60;;;11.30;99.90;;;;;;1018637;29;20510;-67
2022/03/20 01:36:25;;;;;;;5.70;4.20;;;11.20;99.90;;;;;;1019015;29;20047;-67
2022/03/20 01:36:57;;;;;;;7.07;4.60;;;11.20;99.90;;;;;;1016876;29;20730;-68
2022/03/20 01:37:27;;;;;;;5.70;4.60;;;11.30;99.90;;;;;;1014324;29;20026;-69
2022/03/20 01:37:58;;;;;;;5.47;4.53;;;11.20;99.90;;;;;;1015017;29;20024;-67
2022/03/20 01:38:29;;;;;;;6.07;5.03;;;11.20;99.90;;;;;;1014681;29;20020;-69
2022/03/20 01:39:00;;;;;;;6.63;5.00;;;11.20;99.90;;;;;;1014518;29;20522;-70
2022/03/20 01:39:31;;;;;;;5.53;4.77;;;11.20;99.90;;;;;;1014652;29;20499;-66
2022/03/20 01:40:02;;;;;;;5.30;4.80;;;11.20;99.90;;;;;;1014609;29;20783;-69
2022/03/20 01:40:33;;;;;;;4.95;3.90;;;11.20;99.90;;;;;;1015021;29;20028;-67
2022/03/20 01:41:03;;;;;;;6.50;4.28;;;11.20;99.90;;;;;;1014916;29;20017;-68
2022/03/20 01:41:34;;;;;;;5.67;4.40;;;11.20;99.90;;;;;;1015220;29;20016;-69
2022/03/20 01:42:05;;;;;;;5.50;4.73;;;11.20;99.90;;;;;;1015017;29;20478;-69
2022/03/20 01:42:39;;;;;;;6.40;4.25;;;11.20;99.90;;;;;;1014472;29;20103;-69
2022/03/20 01:43:10;;;;;;;6.13;4.65;;;11.20;99.90;;;;;;1014854;29;20663;-67
2022/03/20 01:43:52;;;;;;;5.33;4.70;;;11.20;99.90;;;;;;1014435;29;20547;-66
2022/03/20 01:44:32;;;;;;;6.30;4.65;;;11.10;99.90;;;;;;1013154;29;20031;-67
2022/03/20 01:45:14;;;;;;;5.30;4.03;;;11.10;99.90;;;;;;1016603;29;20097;-68
2022/03/20 01:45:45;;;;;;;6.97;5.10;;;11.10;99.90;;;;;;1018803;29;20387;-68
2022/03/20 01:46:16;;;;;;;6.33;4.20;;;11.10;99.90;;;;;;1018847;29;20539;-68
2022/03/20 01:46:46;;;;;;;6.30;4.65;;;11.10;99.90;;;;;;1018997;29;20023;-69
2022/03/20 01:47:17;;;;;;;5.83;4.77;;;11.10;99.90;;;;;;1018842;29;20027;-69
2022/03/20 01:47:49;;;;;;;7.43;5.33;;;11.10;99.90;;;;;;1018859;29;20487;-67
2022/03/20 01:48:20;;;;;;;5.75;4.25;;;11.10;99.90;;;;;;1018952;29;20024;-67
2022/03/20 01:48:50;;;;;;;5.47;4.87;;;11.10;99.90;;;;;;1018823;29;20046;-67
2022/03/20 01:49:21;;;;;;;4.53;3.97;;;11.10;99.90;;;;;;1018809;29;20813;-66
2022/03/20 01:49:51;;;;;;;6.47;4.60;;;11.10;99.90;;;;;;1018985;29;20028;-69
2022/03/20 01:50:24;;;;;;;5.53;4.87;;;11.10;99.90;;;;;;1018516;29;20055;-67
2022/03/20 01:50:55;;;;;;;5.55;4.25;;;11.00;99.90;;;;;;1018506;29;20051;-67
2022/03/20 01:52:23;;;;;;;6.60;5.13;;;11.10;99.90;;;;;;1018920;29;20490;-67
2022/03/20 01:52:54;;;;;;;;;;;11.10;99.90;;;;;;1019371;29;20016;-67
2022/03/20 01:53:26;;;;;;;6.33;4.63;;;11.10;99.90;;;;;;1018797;29;19938;-69
2022/03/20 01:53:56;;;;;;;6.57;4.75;;;11.10;99.90;;;;;;1018406;29;20016;-69
2022/03/20 01:54:27;;;;;;;6.13;4.87;;;11.10;99.90;;;;;;1018516;29;20095;-69
2022/03/20 01:54:58;;;;;;;7.27;4.77;;;11.00;99.90;;;;;;1018542;29;20475;-67
2022/03/20 01:55:28;;;;;;;6.83;5.40;;;11.10;99.90;;;;;;1017979;29;20028;-68
2022/03/20 01:55:59;;;;;;;6.57;4.87;;;11.10;99.90;;;;;;1014409;29;20362;-67
2022/03/20 01:56:32;;;;;;;6.13;4.23;;;11.00;99.90;;;;;;1014770;29;20133;-68
2022/03/20 01:57:04;;;;;;;6.50;5.18;;;11.00;99.90;;;;;;1018528;29;20050;-69
2022/03/20 01:57:37;;;;;;;6.22;4.95;;;11.10;99.90;;;;;;1017735;29;20068;-69
2022/03/20 01:58:08;;;;;;;5.18;4.50;;;11.10;99.90;;;;;;1014669;29;20017;-68
2022/03/20 01:58:38;;;;;;;6.17;4.63;;;11.10;99.90;;;;;;1014468;29;20059;-68
2022/03/20 01:59:09;;;;;;;5.40;4.73;;;11.10;99.90;;;;;;1014686;29;20435;-68
2022/03/20 01:59:39;;;;;;;5.97;4.20;;;11.10;99.90;;;;;;1014493;29;20028;-69
2022/03/20 02:00:13;;;;;;;7.07;4.47;;;11.00;99.90;;;;;;1018511;29;20055;-67
2022/03/20 02:00:43;;;;;;;5.72;4.30;;;11.00;99.90;;;;;;1018259;29;20461;-67
2022/03/20 02:01:15;;;;;;;7.70;4.50;;;11.00;99.90;;;;;;1018567;29;20386;-68
2022/03/20 02:01:45;;;;;;;7.15;4.60;;;11.00;99.90;;;;;;1017976;29;20100;-67
2022/03/20 02:02:16;;;;;;;5.17;4.40;;;11.00;99.90;;;;;;1018537;29;20036;-68
2022/03/20 02:02:47;;;;;;;5.93;4.67;;;11.00;99.90;;;;;;1018363;29;20024;-68
2022/03/20 02:03:19;;;;;;;6.20;4.77;;;11.10;99.90;;;;;;1018550;29;20020;-68
2022/03/20 02:03:53;;;;;;;6.88;5.20;;;11.00;99.90;;;;;;1018291;29;20019;-68
2022/03/20 02:04:23;;;;;;;5.28;3.78;;;11.00;99.90;;;;;;1018033;29;20422;-68
2022/03/20 02:04:54;;;;;;;5.17;3.93;;;11.00;99.90;;;;;;1014663;29;20392;-69
2022/03/20 02:05:24;;;;;;;6.27;4.47;;;11.00;99.90;;;;;;1014610;29;20036;-67
2022/03/20 02:05:55;;;;;;;7.70;4.77;;;11.00;99.90;;;;;;1014525;29;20116;-67
2022/03/20 02:06:26;;;;;;;5.32;4.25;;;11.00;99.90;;;;;;1018428;29;20773;-67
2022/03/20 02:06:57;;;;;;;5.50;4.53;;;11.00;99.90;;;;;;1018615;29;20103;-67
2022/03/20 02:07:29;;;;;;;5.45;4.70;;;11.00;99.90;;;;;;1014548;29;20032;-68
2022/03/20 02:08:02;;;;;;;5.05;4.07;;;11.00;99.90;;;;;;1018619;29;20028;-68
2022/03/20 02:08:36;;;;;;;9.82;4.65;;;11.00;99.90;;;;;;1018274;29;20020;-69
2022/03/20 02:09:06;;;;;;;6.45;5.05;;;11.00;99.90;;;;;;1017726;29;20034;-68
2022/03/20 02:09:39;;;;;;;6.60;4.80;;;11.00;99.90;;;;;;1020680;29;20035;-67
2022/03/20 02:10:10;;;;;;;6.93;4.38;;;11.00;99.90;;;;;;1018500;29;20024;-68
2022/03/20 02:10:43;;;;;;;5.30;4.03;;;11.00;99.90;;;;;;1018303;29;20057;-68
2022/03/20 02:11:13;;;;;;;5.50;4.25;;;11.00;99.90;;;;;;1018617;29;20027;-67
2022/03/20 02:11:47;;;;;;;5.83;4.27;;;11.00;99.90;;;;;;1018446;29;20039;-66
2022/03/20 02:12:18;;;;;;;5.72;4.13;;;11.00;99.90;;;;;;1014679;29;20064;-67
2022/03/20 02:12:48;;;;;;;6.07;4.60;;;11.00;99.90;;;;;;1014904;29;20028;-66
2022/03/20 02:13:23;;;;;;;6.67;5.03;;;10.90;99.90;;;;;;1014994;29;20482;-67
2022/03/20 02:13:54;;;;;;;5.32;3.67;;;10.90;99.90;;;;;;1014305;29;20032;-67
2022/03/20 02:14:25;;;;;;;5.90;4.37;;;10.90;99.90;;;;;;1014492;29;20039;-68
2022/03/20 02:14:58;;;;;;;6.28;4.40;;;10.90;99.90;;;;;;1014738;29;20546;-68
2022/03/20 02:15:29;;;;;;;5.80;4.50;;;10.90;99.90;;;;;;1014485;29;20042;-69
2022/03/20 02:16:00;;;;;;;6.10;4.10;;;10.90;99.90;;;;;;1022589;29;20030;-68
2022/03/20 02:16:31;;;;;;;6.67;4.63;;;11.00;99.90;;;;;;1022336;29;20031;-68
2022/03/20 02:17:02;;;;;;;6.63;4.10;;;10.90;99.90;;;;;;1022364;29;20429;-66
2022/03/20 02:17:34;;;;;;;4.47;4.05;;;10.90;99.90;;;;;;1022618;29;20023;-66
2022/03/20 02:18:07;;;;;;;5.03;3.92;;;10.90;99.90;;;;;;1022400;29;20043;-68
2022/03/20 02:18:38;;;;;;;7.07;5.75;;;10.90;99.90;;;;;;1022601;28;20454;-68
2022/03/20 02:19:13;;;;;;;6.63;4.07;;;10.90;99.90;;;;;;1022911;29;20520;-67
2022/03/20 02:19:45;;;;;;;9.18;5.05;;;10.90;99.90;;;;;;1015258;28;20261;-68
2022/03/20 02:20:18;;;;;;;5.10;4.38;;;10.90;99.90;;;;;;1015193;29;20111;-68
2022/03/20 02:20:49;;;;;;;6.13;4.78;;;10.90;99.90;;;;;;1015566;29;20016;-67
2022/03/20 02:21:49;;;;;;;5.13;4.33;;;10.90;99.90;;;;;;1015678;29;20112;-68
2022/03/20 02:22:19;;;;;;;5.95;4.00;;;10.90;99.90;;;;;;1015058;29;20535;-66
2022/03/20 02:22:50;;;;;;;5.07;3.90;;;10.90;99.90;;;;;;1015064;29;20486;-67
2022/03/20 02:23:21;;;;;;;5.20;4.70;;;10.90;99.90;;;;;;1018273;29;20039;-68
2022/03/20 02:23:51;;;;;;;6.03;4.57;;;10.90;99.90;;;;;;1019367;29;20816;-69
2022/03/20 02:24:29;;;;;;;5.70;4.57;;;10.90;99.90;;;;;;1019172;29;20024;-68
2022/03/20 02:25:05;;;;;;;6.13;4.18;;;10.90;99.90;;;;;;1019293;29;20763;-66
2022/03/20 02:25:38;;;;;;;5.95;4.55;;;10.90;99.90;;;;;;1019306;29;20008;-68
2022/03/20 02:26:09;;;;;;;5.60;5.00;;;10.80;99.90;;;;;;1019180;29;20067;-66
2022/03/20 02:26:39;;;;;;;6.33;4.43;;;10.80;99.90;;;;;;1019306;29;20048;-67
2022/03/20 02:27:19;;;;;;;5.50;4.23;;;10.80;99.90;;;;;;1019522;29;20020;-68
2022/03/20 02:27:50;;;;;;;5.40;4.22;;;10.80;99.90;;;;;;1019682;29;20036;-67
2022/03/20 02:28:21;;;;;;;5.77;3.73;;;10.80;99.90;;;;;;1017550;29;20055;-68
2022/03/20 02:28:51;;;;;;;5.40;4.30;;;10.80;99.90;;;;;;1015539;29;20951;-67
2022/03/20 02:29:22;;;;;;;5.17;4.10;;;10.80;99.90;;;;;;1015716;29;20016;-68
2022/03/20 02:30:11;;;;;;;5.83;4.20;;;10.80;99.90;;;;;;1015236;29;20579;-67
2022/03/20 02:30:42;;;;;;;5.18;4.68;;;10.80;99.90;;;;;;1015331;29;20012;-67
2022/03/20 02:31:13;;;;;;;5.53;3.90;;;10.80;99.90;;;;;;1015499;29;20020;-68
2022/03/20 02:31:43;;;;;;;6.20;4.33;;;10.80;99.90;;;;;;1015019;29;20270;-66
2022/03/20 02:32:19;;;;;;;4.77;3.97;;;10.80;99.90;;;;;;1015523;29;20058;-68
2022/03/20 02:32:52;;;;;;;7.35;4.70;;;10.80;99.90;;;;;;1015307;29;20012;-66
2022/03/20 02:33:27;;;;;;;6.93;4.63;;;10.80;99.90;;;;;;1015345;29;20136;-66
2022/03/20 02:33:58;;;;;;;6.32;4.38;;;10.70;99.90;;;;;;1015731;29;20027;-68
2022/03/20 02:34:30;;;;;;;5.73;4.53;;;10.70;99.90;;;;;;1015670;29;20021;-67
2022/03/20 02:35:04;;;;;;;5.18;3.83;;;10.80;99.90;;;;;;1015478;29;20016;-68
2022/03/20 02:35:36;;;;;;;5.72;4.00;;;10.80;99.90;;;;;;1015578;29;20540;-66
2022/03/20 02:36:06;;;;;;;4.25;3.67;;;10.70;99.90;;;;;;1015042;29;20040;-66
2022/03/20 02:36:37;;;;;;;5.77;3.90;;;10.80;99.90;;;;;;1015167;29;20059;-67
2022/03/20 02:37:08;;;;;;;6.33;4.10;;;10.80;99.90;;;;;;1015386;29;20012;-68
2022/03/20 02:37:41;;;;;;;5.70;3.63;;;10.80;99.90;;;;;;1015126;29;20020;-67
2022/03/20 02:38:13;;;;;;;5.95;4.10;;;10.70;99.90;;;;;;1015374;29;20103;-66
2022/03/20 02:38:43;;;;;;;6.55;4.05;;;10.70;99.90;;;;;;1015107;29;20023;-66
2022/03/20 02:39:14;;;;;;;6.17;4.47;;;10.70;99.90;;;;;;1015494;29;20024;-66
2022/03/20 02:39:45;;;;;;;6.07;4.33;;;10.70;99.90;;;;;;1014943;29;20036;-66
2022/03/20 02:40:17;;;;;;;4.97;3.67;;;10.70;99.90;;;;;;1013754;29;20036;-68
2022/03/20 02:40:54;;;;;;;4.78;3.80;;;10.70;99.90;;;;;;1016495;29;20759;-66
2022/03/20 02:41:26;;;;;;;5.97;4.32;;;10.70;99.90;;;;;;1019099;29;20487;-67
2022/03/20 02:42:04;;;;;;;5.85;4.57;;;10.70;99.90;;;;;;1019190;29;20126;-67
2022/03/20 02:42:37;;;;;;;4.85;3.80;;;10.70;99.90;;;;;;1019182;29;20400;-67
2022/03/20 02:43:08;;;;;;;5.05;4.10;;;10.70;99.90;;;;;;1018989;29;20178;-67
2022/03/20 02:43:39;;;;;;;8.63;4.83;;;10.70;99.90;;;;;;1019038;29;20030;-67
2022/03/20 02:44:09;;;;;;;5.88;4.00;;;10.70;99.90;;;;;;1019077;29;20046;-67
2022/03/20 02:45:03;;;;;;;5.87;4.20;;;10.70;99.90;;;;;;1018816;29;20027;-67
2022/03/20 02:45:34;;;;;;;5.43;3.63;;;10.70;99.90;;;;;;1019557;29;20031;-67